createdAt,value
2023-07-03T00:01:13.742Z,15.91
2023-07-03T00:04:05.802Z,15.92
2023-07-03T00:06:57.742Z,15.90
2023-07-03T00:09:43.306Z,15.93
2023-07-03T00:12:35.748Z,15.93
2023-07-03T00:15:26.728Z,15.95
2023-07-03T00:18:11.761Z,15.89
2023-07-03T00:21:04.738Z,15.80
2023-07-03T00:23:49.460Z,15.70
2023-07-03T00:26:40.740Z,15.58
2023-07-03T00:29:25.629Z,15.47
2023-07-03T00:32:16.760Z,15.40
2023-07-03T00:35:01.853Z,15.39
2023-07-03T00:37:52.759Z,15.36
2023-07-03T00:40:43.800Z,15.31
2023-07-03T00:43:48.743Z,15.26
2023-07-03T00:46:33.672Z,15.16
2023-07-03T00:49:27.867Z,15.22
2023-07-03T00:52:13.729Z,15.27
2023-07-03T00:55:05.755Z,15.22
2023-07-03T00:57:51.584Z,15.12
2023-07-03T01:00:52.739Z,15.12
2023-07-03T01:03:46.554Z,15.10
2023-07-03T01:06:47.746Z,15.08
2023-07-03T01:09:49.036Z,15.12
2023-07-03T01:12:45.757Z,15.06
2023-07-03T01:15:40.739Z,15.02
2023-07-03T01:18:26.503Z,14.96
2023-07-03T01:21:30.748Z,14.90
2023-07-03T01:24:28.244Z,14.75
2023-07-03T01:27:22.792Z,14.75
2023-07-03T01:30:11.989Z,14.62
2023-07-03T01:33:04.818Z,14.60
2023-07-03T01:35:52.060Z,14.55
2023-07-03T01:38:43.792Z,14.57
2023-07-03T01:41:36.815Z,14.55
2023-07-03T01:44:34.767Z,14.45
2023-07-03T01:47:21.323Z,14.45
2023-07-03T01:50:17.778Z,14.42
2023-07-03T01:53:11.462Z,14.43
2023-07-03T01:56:22.785Z,14.37
2023-07-03T01:59:16.763Z,14.38
2023-07-03T02:02:12.738Z,14.32
2023-07-03T02:05:11.761Z,14.25
2023-07-03T02:08:07.757Z,14.26
2023-07-03T02:10:54.452Z,14.18
2023-07-03T02:13:45.762Z,14.17
2023-07-03T02:16:30.812Z,14.18
2023-07-03T02:19:23.761Z,14.20
2023-07-03T02:22:08.751Z,14.19
2023-07-03T02:25:00.764Z,14.14
2023-07-03T02:27:46.060Z,14.14
2023-07-03T02:30:37.802Z,14.02
2023-07-03T02:33:22.759Z,14.03
2023-07-03T02:36:14.779Z,14.04
2023-07-03T02:38:59.965Z,13.95
2023-07-03T02:41:51.780Z,13.90
2023-07-03T02:44:37.015Z,13.86
2023-07-03T02:47:28.935Z,13.83
2023-07-03T02:50:14.131Z,13.77
2023-07-03T02:53:05.786Z,13.70
2023-07-03T02:55:57.787Z,13.73
2023-07-03T02:58:43.017Z,13.66
2023-07-03T03:01:35.792Z,13.60
2023-07-03T03:04:20.574Z,13.60
2023-07-03T03:07:11.795Z,13.57
2023-07-03T03:09:56.809Z,13.62
2023-07-03T03:12:47.764Z,13.55
2023-07-03T03:15:38.202Z,13.50
2023-07-03T03:18:29.785Z,13.41
2023-07-03T03:21:22.854Z,13.49
2023-07-03T03:24:07.844Z,13.55
2023-07-03T03:26:58.811Z,13.62
2023-07-03T03:29:49.789Z,13.59
2023-07-03T03:32:40.791Z,13.59
2023-07-03T03:35:25.580Z,13.52
2023-07-03T03:38:16.794Z,13.58
2023-07-03T03:41:10.863Z,13.64
2023-07-03T03:44:08.791Z,13.64
2023-07-03T03:47:00.808Z,13.63
2023-07-03T03:49:45.690Z,13.66
2023-07-03T03:52:36.815Z,13.75
2023-07-03T03:55:21.883Z,13.73
2023-07-03T03:58:13.791Z,13.82
2023-07-03T04:00:58.650Z,13.74
2023-07-03T04:03:49.817Z,13.79
2023-07-03T04:06:45.806Z,13.70
2023-07-03T04:09:30.762Z,13.68
2023-07-03T04:12:21.828Z,13.76
2023-07-03T04:15:07.829Z,13.81
2023-07-03T04:18:06.858Z,13.83
2023-07-03T04:21:06.117Z,13.92
2023-07-03T04:24:04.799Z,13.90
2023-07-03T04:26:49.692Z,13.94
2023-07-03T04:29:40.803Z,14.02
2023-07-03T04:32:26.220Z,14.10
2023-07-03T04:35:17.810Z,14.16
2023-07-03T04:38:03.124Z,14.17
2023-07-03T04:40:54.803Z,14.27
2023-07-03T04:43:49.129Z,14.39
2023-07-03T04:46:40.878Z,14.41
2023-07-03T04:49:33.805Z,14.38
2023-07-03T04:52:20.706Z,14.50
2023-07-03T04:55:14.814Z,14.47
2023-07-03T04:58:06.820Z,14.47
2023-07-03T05:00:58.838Z,14.44
2023-07-03T05:03:43.744Z,14.50
2023-07-03T05:06:35.816Z,14.51
2023-07-03T05:09:29.877Z,14.56
2023-07-03T05:12:21.828Z,14.68
2023-07-03T05:15:10.510Z,14.73
2023-07-03T05:18:02.951Z,14.85
2023-07-03T05:20:49.991Z,14.85
2023-07-03T05:23:41.854Z,15.00
2023-07-03T05:26:26.689Z,15.07
2023-07-03T05:29:17.986Z,15.05
2023-07-03T05:32:03.705Z,15.09
2023-07-03T05:34:54.827Z,15.24
2023-07-03T05:37:46.855Z,15.12
2023-07-03T05:40:51.905Z,15.20
2023-07-03T05:43:42.853Z,15.36
2023-07-03T05:46:34.881Z,15.37
2023-07-03T05:49:26.833Z,15.58
2023-07-03T05:52:18.839Z,15.62
2023-07-03T05:55:12.826Z,15.87
2023-07-03T05:58:04.844Z,15.75
2023-07-03T06:00:50.223Z,15.90
2023-07-03T06:03:41.880Z,16.02
2023-07-03T06:06:27.128Z,15.86
2023-07-03T06:09:18.856Z,16.08
2023-07-03T06:12:05.005Z,15.97
2023-07-03T06:14:56.830Z,16.00
2023-07-03T06:17:43.287Z,16.30
2023-07-03T06:20:34.833Z,16.62
2023-07-03T06:23:25.869Z,16.63
2023-07-03T06:26:18.877Z,16.45
2023-07-03T06:29:03.888Z,16.48
2023-07-03T06:31:56.850Z,16.52
2023-07-03T06:34:47.882Z,16.43
2023-07-03T06:37:32.890Z,16.38
2023-07-03T06:40:25.843Z,16.48
2023-07-03T06:43:17.038Z,16.67
2023-07-03T06:46:08.946Z,16.78
2023-07-03T06:48:56.409Z,16.91
2023-07-03T06:51:48.896Z,16.96
2023-07-03T06:54:33.951Z,16.92
2023-07-03T06:57:24.862Z,17.01
2023-07-03T07:00:10.844Z,17.13
2023-07-03T07:03:02.970Z,17.22
2023-07-03T07:05:48.533Z,17.37
2023-07-03T07:08:39.872Z,17.40
2023-07-03T07:11:30.073Z,17.65
2023-07-03T07:14:21.874Z,17.85
2023-07-03T07:17:07.030Z,17.84
2023-07-03T07:19:59.207Z,18.08
2023-07-03T07:22:44.311Z,17.99
2023-07-03T07:25:35.857Z,18.16
2023-07-03T07:28:27.883Z,17.87
2023-07-03T07:31:22.366Z,17.77
2023-07-03T07:34:15.887Z,18.27
2023-07-03T07:37:07.877Z,18.62
2023-07-03T07:39:58.861Z,18.43
2023-07-03T07:42:49.908Z,18.86
2023-07-03T07:45:40.912Z,19.02
2023-07-03T07:48:28.822Z,20.37
2023-07-03T07:51:21.867Z,20.57
2023-07-03T07:54:06.914Z,20.83
2023-07-03T07:56:58.930Z,20.67
2023-07-03T07:59:43.740Z,20.64
2023-07-03T08:02:35.032Z,19.75
2023-07-03T08:05:21.107Z,19.64
2023-07-03T08:08:12.909Z,19.37
2023-07-03T08:11:01.105Z,19.40
2023-07-03T08:13:52.939Z,19.53
2023-07-03T08:16:38.103Z,19.62
2023-07-03T08:19:29.901Z,19.76
2023-07-03T08:22:21.891Z,20.91
2023-07-03T08:25:07.783Z,19.86
2023-07-03T08:27:58.980Z,19.73
2023-07-03T08:30:43.978Z,20.57
2023-07-03T08:33:36.000Z,22.54
2023-07-03T08:39:15.912Z,21.60
2023-07-03T08:42:27.922Z,21.70
2023-07-03T08:45:22.882Z,20.54
2023-07-03T08:48:13.474Z,20.21
2023-07-03T08:51:09.903Z,21.33
2023-07-03T08:54:05.832Z,23.16
2023-07-03T08:56:57.890Z,22.04
2023-07-03T08:59:43.071Z,24.26
2023-07-03T09:02:45.033Z,25.64
2023-07-03T09:05:59.495Z,25.52
2023-07-03T09:09:04.943Z,25.65
2023-07-03T09:12:26.925Z,25.83
2023-07-03T09:15:32.914Z,25.87
2023-07-03T09:18:21.529Z,23.28
2023-07-03T09:21:13.928Z,22.22
2023-07-03T09:24:45.924Z,21.35
2023-07-03T09:27:31.112Z,20.47
2023-07-03T09:30:22.914Z,21.28
2023-07-03T09:33:08.091Z,20.65
2023-07-03T09:36:00.914Z,20.57
2023-07-03T09:38:46.081Z,21.10
2023-07-03T09:41:41.955Z,20.99
2023-07-03T09:44:33.167Z,21.70
2023-07-03T09:47:30.096Z,21.45
2023-07-03T09:50:16.594Z,20.78
2023-07-03T09:53:10.294Z,20.55
2023-07-03T09:55:58.799Z,21.27
2023-07-03T09:58:55.928Z,21.27
2023-07-03T10:07:41.018Z,20.24
2023-07-03T10:13:38.034Z,20.78
2023-07-03T10:16:26.521Z,20.64
2023-07-03T10:19:18.004Z,23.54
2023-07-03T10:22:05.877Z,26.14
2023-07-03T10:24:57.964Z,23.83
2023-07-03T10:27:43.296Z,22.77
2023-07-03T10:30:39.954Z,25.75
2023-07-03T10:33:43.002Z,23.40
2023-07-03T10:36:38.964Z,21.80
2023-07-03T10:39:48.943Z,21.17
2023-07-03T10:42:53.972Z,21.41
2023-07-03T10:45:53.151Z,23.88
2023-07-03T10:48:44.948Z,25.94
2023-07-03T10:51:48.008Z,24.98
2023-07-03T10:54:44.938Z,25.48
2023-07-03T10:57:55.962Z,23.56
2023-07-03T11:00:55.001Z,23.06
2023-07-03T11:04:22.713Z,21.84
2023-07-03T11:07:41.988Z,21.09
2023-07-03T11:10:49.189Z,21.06
2023-07-03T11:13:49.145Z,21.73
2023-07-03T11:16:45.652Z,22.11
2023-07-03T11:28:45.074Z,21.65
2023-07-03T11:31:38.013Z,21.86
2023-07-03T11:41:06.036Z,21.70
2023-07-03T11:44:03.984Z,21.43
2023-07-03T11:46:59.989Z,22.11
2023-07-03T11:49:49.480Z,22.47
2023-07-03T11:52:43.978Z,22.88
2023-07-03T11:55:43.997Z,22.06
2023-07-03T11:58:37.997Z,21.85
2023-07-03T12:01:33.130Z,22.01
2023-07-03T12:04:51.021Z,22.11
2023-07-03T12:07:35.982Z,22.33
2023-07-03T12:10:27.007Z,22.70
2023-07-03T12:13:38.238Z,23.01
2023-07-03T12:16:40.009Z,22.46
2023-07-03T12:19:31.522Z,22.20
2023-07-03T12:22:27.024Z,21.44
2023-07-03T12:25:32.026Z,21.57
2023-07-03T12:28:25.000Z,21.32
2023-07-03T12:31:27.047Z,21.43
2023-07-03T12:34:12.194Z,21.47
2023-07-03T12:37:11.008Z,22.15
2023-07-03T12:39:55.910Z,22.85
2023-07-03T12:43:00.013Z,22.45
2023-07-03T12:45:51.932Z,22.09
2023-07-03T12:48:44.028Z,22.07
2023-07-03T12:51:28.948Z,22.07
2023-07-03T12:54:20.061Z,21.80
2023-07-03T12:57:07.086Z,21.38
2023-07-03T13:00:00.009Z,21.09
2023-07-03T13:02:52.046Z,21.56
2023-07-03T13:05:37.334Z,21.72
2023-07-03T13:08:29.029Z,22.09
2023-07-03T13:11:21.024Z,22.36
2023-07-03T13:14:18.016Z,21.97
2023-07-03T13:17:04.563Z,22.11
2023-07-03T13:19:56.016Z,22.12
2023-07-03T13:23:12.012Z,22.05
2023-07-03T13:25:58.150Z,22.06
2023-07-03T13:29:03.039Z,22.12
2023-07-03T13:31:52.803Z,22.22
2023-07-03T13:35:08.008Z,21.84
2023-07-03T13:37:53.138Z,21.91
2023-07-03T13:40:45.139Z,21.77
2023-07-03T13:43:46.123Z,21.73
2023-07-03T13:46:31.112Z,22.05
2023-07-03T13:49:24.022Z,21.95
2023-07-03T13:52:09.213Z,22.25
2023-07-03T13:55:01.025Z,22.06
2023-07-03T13:57:45.881Z,22.03
2023-07-03T14:00:37.046Z,22.19
2023-07-03T14:03:28.106Z,21.91
2023-07-03T14:06:13.919Z,22.15
2023-07-03T14:09:06.045Z,22.15
2023-07-03T14:11:57.070Z,22.28
2023-07-03T14:14:42.048Z,22.46
2023-07-03T14:17:33.129Z,22.39
2023-07-03T14:20:18.347Z,21.95
2023-07-03T14:23:11.034Z,22.21
2023-07-03T14:25:59.944Z,22.26
2023-07-03T14:28:53.032Z,22.31
2023-07-03T14:31:45.091Z,22.37
2023-07-03T14:34:29.905Z,22.25
2023-07-03T14:37:21.079Z,22.44
2023-07-03T14:40:06.622Z,22.21
2023-07-03T14:43:05.061Z,22.07
2023-07-03T14:45:50.261Z,22.14
2023-07-03T14:48:42.343Z,21.96
2023-07-03T14:51:34.074Z,22.10
2023-07-03T14:54:25.079Z,22.43
2023-07-03T14:57:16.063Z,22.33
2023-07-03T15:00:01.026Z,22.19
2023-07-03T15:02:56.251Z,22.31
2023-07-03T15:05:41.613Z,22.28
2023-07-03T15:08:33.054Z,22.11
2023-07-03T15:11:18.988Z,22.57
2023-07-03T15:14:14.071Z,22.68
2023-07-03T15:16:59.280Z,22.45
2023-07-03T15:19:51.056Z,22.42
2023-07-03T15:22:36.369Z,22.48
2023-07-03T15:25:28.075Z,22.51
2023-07-03T15:28:20.065Z,22.14
2023-07-03T15:31:12.115Z,21.92
2023-07-03T15:33:57.061Z,22.03
2023-07-03T15:36:49.068Z,22.08
2023-07-03T15:39:34.005Z,22.24
2023-07-03T15:42:25.083Z,22.23
2023-07-03T15:45:17.280Z,22.48
2023-07-03T15:48:09.086Z,22.73
2023-07-03T15:50:58.138Z,22.70
2023-07-03T15:53:50.099Z,22.60
2023-07-03T15:56:42.085Z,22.39
2023-07-03T15:59:27.505Z,22.32
2023-07-03T16:02:19.103Z,22.36
2023-07-03T16:05:11.096Z,22.23
2023-07-03T16:08:02.101Z,22.25
2023-07-03T16:10:47.104Z,22.18
2023-07-03T16:13:40.114Z,22.29
2023-07-03T16:16:26.448Z,22.40
2023-07-03T16:19:21.857Z,22.18
2023-07-03T16:22:07.956Z,22.15
2023-07-03T16:24:59.088Z,22.09
2023-07-03T16:27:50.109Z,22.25
2023-07-03T16:30:41.154Z,22.23
2023-07-03T16:33:26.685Z,22.22
2023-07-03T16:36:24.106Z,22.20
2023-07-03T16:39:09.962Z,22.11
2023-07-03T16:42:01.109Z,21.88
2023-07-03T16:44:46.677Z,21.81
2023-07-03T16:47:38.115Z,21.66
2023-07-03T16:50:22.954Z,21.68
2023-07-03T16:53:15.286Z,21.75
2023-07-03T16:56:11.402Z,21.94
2023-07-03T16:59:05.093Z,21.85
2023-07-03T17:01:49.861Z,21.97
2023-07-03T17:04:41.130Z,22.08
2023-07-03T17:07:26.408Z,22.00
2023-07-03T17:10:18.107Z,21.83
2023-07-03T17:13:05.061Z,21.86
2023-07-03T17:15:57.172Z,21.79
2023-07-03T17:18:42.036Z,21.87
2023-07-03T17:21:34.253Z,21.87
2023-07-03T17:24:19.435Z,21.89
2023-07-03T17:27:11.384Z,21.90
2023-07-03T17:29:56.401Z,21.82
2023-07-03T17:32:49.166Z,21.74
2023-07-03T17:35:42.118Z,21.74
2023-07-03T17:38:34.111Z,21.67
2023-07-03T17:41:26.128Z,21.67
2023-07-03T17:44:17.754Z,21.66
2023-07-03T17:47:09.133Z,21.55
2023-07-03T17:50:00.164Z,21.57
2023-07-03T17:52:46.352Z,21.51
2023-07-03T17:55:39.136Z,21.44
2023-07-03T17:58:24.191Z,21.32
2023-07-03T18:01:16.152Z,21.27
2023-07-03T18:04:01.556Z,21.29
2023-07-03T18:06:53.129Z,21.22
2023-07-03T18:09:38.150Z,21.20
2023-07-03T18:12:29.137Z,21.13
2023-07-03T18:15:14.845Z,21.11
2023-07-03T18:18:06.132Z,21.06
2023-07-03T18:20:50.937Z,21.03
2023-07-03T18:23:42.135Z,21.00
2023-07-03T18:26:26.779Z,20.95
2023-07-03T18:29:18.140Z,20.90
2023-07-03T18:32:03.469Z,20.76
2023-07-03T18:34:55.143Z,20.81
2023-07-03T18:37:39.862Z,20.77
2023-07-03T18:40:31.161Z,20.68
2023-07-03T18:43:22.285Z,20.64
2023-07-03T18:46:22.226Z,20.60
2023-07-03T18:49:06.944Z,20.54
2023-07-03T18:51:59.164Z,20.48
2023-07-03T18:54:44.772Z,20.44
2023-07-03T18:57:36.218Z,20.37
2023-07-03T19:00:21.911Z,20.30
2023-07-03T19:03:13.158Z,20.23
2023-07-03T19:06:06.162Z,20.23
2023-07-03T19:08:58.160Z,20.01
2023-07-03T19:11:51.181Z,20.10
2023-07-03T19:14:43.163Z,20.08
2023-07-03T19:17:30.242Z,19.97
2023-07-03T19:20:25.161Z,19.93
2023-07-03T19:23:10.024Z,19.92
2023-07-03T19:26:03.205Z,19.90
2023-07-03T19:28:57.154Z,19.80
2023-07-03T19:31:49.207Z,19.74
2023-07-03T19:34:36.296Z,19.75
2023-07-03T19:37:28.169Z,19.65
2023-07-03T19:40:19.312Z,19.60
2023-07-03T19:43:11.180Z,19.57
2023-07-03T19:46:10.181Z,19.52
2023-07-03T19:48:58.263Z,19.45
2023-07-03T19:51:50.190Z,19.41
2023-07-03T19:54:35.220Z,19.41
2023-07-03T19:57:28.186Z,19.41
2023-07-03T20:00:14.063Z,19.33
2023-07-03T20:03:06.243Z,19.26
2023-07-03T20:05:58.165Z,19.20
2023-07-03T20:08:43.190Z,19.15
2023-07-03T20:11:34.199Z,19.08
2023-07-03T20:14:19.818Z,19.04
2023-07-03T20:17:11.216Z,19.02
2023-07-03T20:19:56.197Z,18.96
2023-07-03T20:22:50.192Z,18.92
2023-07-03T20:25:35.045Z,18.90
2023-07-03T20:28:26.179Z,18.87
2023-07-03T20:31:20.222Z,18.79
2023-07-03T20:34:05.377Z,18.85
2023-07-03T20:36:57.200Z,18.84
2023-07-03T20:39:41.909Z,18.78
2023-07-03T20:42:34.203Z,18.67
2023-07-03T20:45:19.223Z,18.69
2023-07-03T20:48:11.206Z,18.65
2023-07-03T20:50:59.529Z,18.67
2023-07-03T20:54:01.174Z,18.69
2023-07-03T20:56:47.157Z,18.68
2023-07-03T20:59:41.191Z,18.64
2023-07-03T21:02:33.230Z,18.57
2023-07-03T21:05:18.463Z,18.56
2023-07-03T21:08:11.782Z,18.46
2023-07-03T21:10:58.575Z,18.38
2023-07-03T21:13:51.347Z,18.31
2023-07-03T21:16:37.100Z,18.25
2023-07-03T21:19:28.185Z,18.14
2023-07-03T21:22:12.850Z,18.05
2023-07-03T21:25:04.567Z,18.03
2023-07-03T21:27:56.219Z,17.96
2023-07-03T21:30:44.072Z,17.91
2023-07-03T21:33:39.228Z,17.87
2023-07-03T21:36:26.412Z,17.81
2023-07-03T21:39:18.193Z,17.67
2023-07-03T21:42:03.378Z,17.59
2023-07-03T21:45:01.217Z,17.56
2023-07-03T21:47:49.503Z,17.63
2023-07-03T21:50:41.225Z,17.57
2023-07-03T21:53:27.051Z,17.58
2023-07-03T21:56:21.216Z,17.58
2023-07-03T21:59:06.416Z,17.54
2023-07-03T22:01:58.306Z,17.55
2023-07-03T22:04:43.727Z,17.57
2023-07-03T22:07:35.236Z,17.48
2023-07-03T22:10:20.046Z,17.46
2023-07-03T22:13:12.244Z,17.44
2023-07-03T22:15:57.114Z,17.38
2023-07-03T22:18:48.220Z,17.38
2023-07-03T22:21:33.113Z,17.34
2023-07-03T22:24:24.221Z,17.23
2023-07-03T22:27:09.382Z,17.22
2023-07-03T22:30:01.231Z,17.16
2023-07-03T22:32:52.289Z,17.13
2023-07-03T22:35:36.908Z,17.09
2023-07-03T22:38:28.211Z,17.05
2023-07-03T22:41:20.225Z,17.01
2023-07-03T22:44:19.215Z,16.97
2023-07-03T22:47:10.602Z,16.85
2023-07-03T22:50:02.254Z,16.77
2023-07-03T22:52:57.239Z,16.58
2023-07-03T22:55:42.391Z,16.47
2023-07-03T22:58:34.283Z,16.43
2023-07-03T23:01:19.554Z,16.48
2023-07-03T23:04:12.253Z,16.45
2023-07-03T23:06:57.640Z,16.45
2023-07-03T23:09:49.240Z,16.41
2023-07-03T23:12:34.633Z,16.44
2023-07-03T23:15:26.238Z,16.43
2023-07-03T23:18:11.006Z,16.47
2023-07-03T23:21:08.357Z,16.53
2023-07-03T23:24:03.234Z,16.50
2023-07-03T23:26:56.260Z,16.52
2023-07-03T23:29:41.611Z,16.53
2023-07-03T23:32:33.309Z,16.55
2023-07-03T23:35:18.334Z,16.60
2023-07-03T23:38:10.258Z,16.59
2023-07-03T23:40:55.449Z,16.54
2023-07-03T23:43:47.265Z,16.47
2023-07-03T23:46:38.662Z,16.36
2023-07-03T23:49:31.262Z,16.25
2023-07-03T23:52:16.542Z,16.25
2023-07-03T23:55:08.253Z,16.27
2023-07-03T23:57:59.261Z,16.24
